createdAt,value
2023-04-27T00:01:49.996Z,32.60
2023-04-27T00:04:28.381Z,32.33
2023-04-27T00:06:56.582Z,32.92
2023-04-27T00:09:25.923Z,32.68
2023-04-27T00:11:53.887Z,32.60
2023-04-27T00:14:21.955Z,32.45
2023-04-27T00:16:50.031Z,32.66
2023-04-27T00:19:18.160Z,32.77
2023-04-27T00:21:46.474Z,32.64
2023-04-27T00:24:14.311Z,32.87
2023-04-27T00:26:46.122Z,32.80
2023-04-27T00:29:14.196Z,32.88
2023-04-27T00:31:42.304Z,32.82
2023-04-27T00:34:10.243Z,32.92
2023-04-27T00:36:43.558Z,33.16
2023-04-27T00:39:11.721Z,33.14
2023-04-27T00:41:40.472Z,33.26
2023-04-27T00:44:09.704Z,33.12
2023-04-27T00:46:37.799Z,33.10
2023-04-27T00:49:06.359Z,33.19
2023-04-27T00:51:34.256Z,33.21
2023-04-27T00:54:02.591Z,33.73
2023-04-27T00:56:31.888Z,33.19
2023-04-27T00:59:03.260Z,33.42
2023-04-27T01:01:33.473Z,33.68
2023-04-27T01:04:03.010Z,33.49
2023-04-27T01:06:31.980Z,33.27
2023-04-27T01:08:59.796Z,33.54
2023-04-27T01:11:29.375Z,33.47
2023-04-27T01:13:57.529Z,33.78
2023-04-27T01:16:25.306Z,33.76
2023-04-27T01:18:54.480Z,33.75
2023-04-27T01:21:24.994Z,33.69
2023-04-27T01:23:54.416Z,33.64
2023-04-27T01:26:22.510Z,33.80
2023-04-27T01:28:50.627Z,33.85
2023-04-27T01:31:18.647Z,33.68
2023-04-27T01:33:48.056Z,33.98
2023-04-27T01:36:16.010Z,33.71
2023-04-27T01:38:44.524Z,33.83
2023-04-27T01:41:15.474Z,33.87
2023-04-27T01:43:43.775Z,33.67
2023-04-27T01:46:15.655Z,34.03
2023-04-27T01:48:43.513Z,33.65
2023-04-27T01:51:12.223Z,33.59
2023-04-27T01:53:40.115Z,33.86
2023-04-27T01:56:07.914Z,33.86
2023-04-27T01:58:37.184Z,33.93
2023-04-27T02:01:05.502Z,33.71
2023-04-27T02:03:41.993Z,33.84
2023-04-27T02:06:10.351Z,33.81
2023-04-27T02:08:38.269Z,33.88
2023-04-27T02:11:07.241Z,33.64
2023-04-27T02:13:35.181Z,34.05
2023-04-27T02:16:05.246Z,33.76
2023-04-27T02:18:33.725Z,33.73
2023-04-27T02:21:01.851Z,33.73
2023-04-27T02:23:29.632Z,33.87
2023-04-27T02:25:57.426Z,33.85
2023-04-27T02:28:25.375Z,34.00
2023-04-27T02:30:54.663Z,33.63
2023-04-27T02:33:23.977Z,34.00
2023-04-27T02:35:51.946Z,33.97
2023-04-27T02:38:20.070Z,34.02
2023-04-27T02:40:47.937Z,33.90
2023-04-27T02:43:15.909Z,33.70
2023-04-27T02:45:43.606Z,34.11
2023-04-27T02:48:11.407Z,33.93
2023-04-27T02:50:42.934Z,34.32
2023-04-27T02:53:11.424Z,34.07
2023-04-27T02:55:39.434Z,34.24
2023-04-27T02:58:07.248Z,33.87
2023-04-27T03:00:35.168Z,33.95
2023-04-27T03:03:06.477Z,34.23
2023-04-27T03:05:34.543Z,34.08
2023-04-27T03:08:03.720Z,33.93
2023-04-27T03:10:31.591Z,34.18
2023-04-27T03:12:59.572Z,34.18
2023-04-27T03:15:29.386Z,34.23
2023-04-27T03:17:57.470Z,34.27
2023-04-27T03:20:25.468Z,34.33
2023-04-27T03:22:54.885Z,34.42
2023-04-27T03:25:24.150Z,34.48
2023-04-27T03:27:52.401Z,34.65
2023-04-27T03:30:20.886Z,34.36
2023-04-27T03:32:48.662Z,34.44
2023-04-27T03:35:16.827Z,34.48
2023-04-27T03:37:46.880Z,34.09
2023-04-27T03:40:15.451Z,34.49
2023-04-27T03:42:44.613Z,34.69
2023-04-27T03:45:13.050Z,34.63
2023-04-27T03:47:41.121Z,34.56
2023-04-27T03:50:09.754Z,34.57
2023-04-27T03:52:37.545Z,34.63
2023-04-27T03:55:06.984Z,34.66
2023-04-27T03:57:34.993Z,34.54
2023-04-27T04:00:07.050Z,34.77
2023-04-27T04:02:40.767Z,34.62
2023-04-27T04:05:09.951Z,34.62
2023-04-27T04:07:37.858Z,34.93
2023-04-27T04:10:06.961Z,34.67
2023-04-27T04:12:35.016Z,35.01
2023-04-27T04:15:05.124Z,35.17
2023-04-27T04:17:34.210Z,35.07
2023-04-27T04:20:07.024Z,35.01
2023-04-27T04:22:35.088Z,35.26
2023-04-27T04:25:04.662Z,34.97
2023-04-27T04:27:33.571Z,34.74
2023-04-27T04:30:01.856Z,35.05
2023-04-27T04:32:31.315Z,35.06
2023-04-27T04:35:01.432Z,35.33
2023-04-27T04:37:30.417Z,35.15
2023-04-27T04:39:58.385Z,35.33
2023-04-27T04:42:27.656Z,35.43
2023-04-27T04:44:55.792Z,35.22
2023-04-27T04:47:23.614Z,35.50
2023-04-27T04:49:54.245Z,35.46
2023-04-27T04:52:22.357Z,35.41
2023-04-27T04:54:52.910Z,35.89
2023-04-27T04:57:22.349Z,35.81
2023-04-27T04:59:50.454Z,35.36
2023-04-27T05:02:18.290Z,35.61
2023-04-27T05:04:46.407Z,35.39
2023-04-27T05:07:20.177Z,35.83
2023-04-27T05:09:51.316Z,35.78
2023-04-27T05:12:19.064Z,35.56
2023-04-27T05:14:47.488Z,35.91
2023-04-27T05:17:15.303Z,35.85
2023-04-27T05:19:43.115Z,35.80
2023-04-27T05:22:11.149Z,35.85
2023-04-27T05:24:40.996Z,36.06
2023-04-27T05:27:08.770Z,36.10
2023-04-27T05:29:36.522Z,36.26
2023-04-27T05:32:04.529Z,36.12
2023-04-27T05:34:32.386Z,36.33
2023-04-27T05:37:00.315Z,36.44
2023-04-27T05:39:28.148Z,36.59
2023-04-27T05:41:57.496Z,36.49
2023-04-27T05:44:28.511Z,36.58
2023-04-27T05:46:57.087Z,36.44
2023-04-27T05:49:25.043Z,36.49
2023-04-27T05:51:53.692Z,36.19
2023-04-27T05:54:21.685Z,36.51
2023-04-27T05:56:50.342Z,36.19
2023-04-27T05:59:19.588Z,36.30
2023-04-27T06:01:47.431Z,36.37
2023-04-27T06:04:15.418Z,36.38
2023-04-27T06:06:44.960Z,36.35
2023-04-27T06:09:16.033Z,36.46
2023-04-27T06:11:44.784Z,36.55
2023-04-27T06:14:12.955Z,36.59
2023-04-27T06:16:42.110Z,36.41
2023-04-27T06:19:10.037Z,36.23
2023-04-27T06:21:38.171Z,36.13
2023-04-27T06:24:06.484Z,35.89
2023-04-27T06:26:34.620Z,36.01
2023-04-27T06:29:07.821Z,36.23
2023-04-27T06:31:36.164Z,36.04
2023-04-27T06:34:05.494Z,36.12
2023-04-27T06:36:33.286Z,36.10
2023-04-27T06:39:01.645Z,36.18
2023-04-27T06:41:29.506Z,36.32
2023-04-27T06:43:58.932Z,36.14
2023-04-27T06:46:27.500Z,36.73
2023-04-27T06:48:55.434Z,36.21
2023-04-27T06:51:24.718Z,35.92
2023-04-27T06:53:53.184Z,36.36
2023-04-27T06:56:21.062Z,36.11
2023-04-27T06:58:48.851Z,36.01
2023-04-27T07:01:16.853Z,36.11
2023-04-27T07:03:44.794Z,36.09
2023-04-27T07:06:12.716Z,35.73
2023-04-27T07:08:42.054Z,35.59
2023-04-27T07:11:09.959Z,35.56
2023-04-27T07:13:37.794Z,35.35
2023-04-27T07:16:06.511Z,35.10
2023-04-27T07:18:34.299Z,35.15
2023-04-27T07:21:02.299Z,34.70
2023-04-27T07:23:30.202Z,34.99
2023-04-27T07:26:00.064Z,34.41
2023-04-27T07:28:29.308Z,34.38
2023-04-27T07:30:58.205Z,34.50
2023-04-27T07:33:27.788Z,34.13
2023-04-27T07:35:56.297Z,33.88
2023-04-27T07:38:24.449Z,34.21
2023-04-27T07:40:52.463Z,33.83
2023-04-27T07:43:23.201Z,33.26
2023-04-27T07:45:51.049Z,33.42
2023-04-27T07:48:19.339Z,33.35
2023-04-27T07:50:47.653Z,32.94
2023-04-27T07:53:16.008Z,32.89
2023-04-27T07:55:44.816Z,32.37
2023-04-27T07:58:12.677Z,32.34
2023-04-27T08:00:41.910Z,32.40
2023-04-27T08:03:09.911Z,32.49
2023-04-27T08:05:38.355Z,31.82
2023-04-27T08:08:07.061Z,31.79
2023-04-27T08:10:35.108Z,31.74
2023-04-27T08:13:02.946Z,32.02
2023-04-27T08:15:30.900Z,31.99
2023-04-27T08:18:00.138Z,31.12
2023-04-27T08:20:28.141Z,31.61
2023-04-27T08:22:55.913Z,30.58
2023-04-27T08:25:23.710Z,30.66
2023-04-27T08:27:51.502Z,30.76
2023-04-27T08:30:19.579Z,31.06
2023-04-27T08:32:47.694Z,30.76
2023-04-27T08:35:17.043Z,30.63
2023-04-27T08:37:45.065Z,30.66
2023-04-27T08:40:13.677Z,30.65
2023-04-27T08:42:54.290Z,30.06
2023-04-27T08:45:23.386Z,30.57
2023-04-27T08:47:51.529Z,30.55
2023-04-27T08:50:21.384Z,30.56
2023-04-27T08:52:49.740Z,30.11
2023-04-27T08:55:17.588Z,29.84
2023-04-27T08:57:56.227Z,28.59
2023-04-27T09:00:25.595Z,29.88
2023-04-27T09:02:53.684Z,29.43
2023-04-27T09:05:24.526Z,29.15
2023-04-27T09:08:00.197Z,28.52
2023-04-27T09:10:29.590Z,29.60
2023-04-27T09:12:59.015Z,29.29
2023-04-27T09:15:27.041Z,28.81
2023-04-27T09:17:56.492Z,28.71
2023-04-27T09:20:27.252Z,28.51
2023-04-27T09:22:56.013Z,28.99
2023-04-27T09:25:25.194Z,28.66
2023-04-27T09:27:53.155Z,28.47
2023-04-27T09:30:21.684Z,28.82
2023-04-27T09:32:54.591Z,27.76
2023-04-27T09:35:24.437Z,28.53
2023-04-27T09:37:54.712Z,28.31
2023-04-27T09:40:26.600Z,28.45
2023-04-27T09:42:55.641Z,28.69
2023-04-27T09:45:24.159Z,28.60
2023-04-27T09:47:52.037Z,28.42
2023-04-27T09:50:20.299Z,28.44
2023-04-27T09:52:48.346Z,28.59
2023-04-27T09:55:20.863Z,27.90
2023-04-27T09:57:56.604Z,27.76
2023-04-27T10:00:38.489Z,27.55
2023-04-27T10:03:18.400Z,27.60
2023-04-27T10:06:25.327Z,27.68
2023-04-27T10:08:53.228Z,28.26
2023-04-27T10:11:23.091Z,28.48
2023-04-27T10:13:55.901Z,28.12
2023-04-27T10:16:23.738Z,28.38
2023-04-27T10:18:56.421Z,27.28
2023-04-27T10:21:24.706Z,28.39
2023-04-27T10:23:54.408Z,28.39
2023-04-27T10:26:28.128Z,27.31
2023-04-27T10:29:05.502Z,27.58
2023-04-27T10:31:33.841Z,27.77
2023-04-27T10:34:09.631Z,26.91
2023-04-27T10:36:38.192Z,27.28
2023-04-27T10:39:17.000Z,27.14
2023-04-27T10:41:54.740Z,26.91
2023-04-27T10:44:28.430Z,27.05
2023-04-27T10:46:57.439Z,27.53
2023-04-27T10:49:25.235Z,26.91
2023-04-27T10:51:53.151Z,26.75
2023-04-27T10:54:21.870Z,26.55
2023-04-27T10:56:52.971Z,27.11
2023-04-27T10:59:21.204Z,27.23
2023-04-27T11:01:51.394Z,27.16
2023-04-27T11:04:19.522Z,26.70
2023-04-27T11:06:47.827Z,26.99
2023-04-27T11:09:26.705Z,25.96
2023-04-27T11:11:56.005Z,26.73
2023-04-27T11:14:23.931Z,26.46
2023-04-27T11:16:52.142Z,26.37
2023-04-27T11:19:19.978Z,26.35
2023-04-27T11:21:47.862Z,26.33
2023-04-27T11:24:15.770Z,25.70
2023-04-27T11:26:43.848Z,25.53
2023-04-27T11:29:14.011Z,25.40
2023-04-27T11:31:47.606Z,26.02
2023-04-27T11:34:22.626Z,25.20
2023-04-27T11:39:36.126Z,26.09
2023-04-27T11:42:18.278Z,26.32
2023-04-27T11:44:53.323Z,26.63
2023-04-27T11:47:22.567Z,26.99
2023-04-27T11:49:51.609Z,26.59
2023-04-27T11:52:19.745Z,25.87
2023-04-27T11:54:49.216Z,26.10
2023-04-27T11:57:17.195Z,25.70
2023-04-27T11:59:45.136Z,26.08
2023-04-27T12:02:14.763Z,25.90
2023-04-27T12:04:43.138Z,25.63
2023-04-27T12:07:12.251Z,25.78
2023-04-27T12:09:40.121Z,26.01
2023-04-27T12:12:08.594Z,25.74
2023-04-27T12:14:36.533Z,25.62
2023-04-27T12:17:04.662Z,25.25
2023-04-27T12:19:33.936Z,24.98
2023-04-27T12:22:02.017Z,24.96
2023-04-27T12:24:29.873Z,25.33
2023-04-27T12:26:58.027Z,25.04
2023-04-27T12:29:27.081Z,25.24
2023-04-27T12:31:54.985Z,25.31
2023-04-27T12:34:22.775Z,25.06
2023-04-27T12:36:52.318Z,24.30
2023-04-27T12:39:21.492Z,24.36
2023-04-27T12:41:50.373Z,24.35
2023-04-27T12:44:19.259Z,24.43
2023-04-27T12:46:48.454Z,24.60
2023-04-27T12:49:17.349Z,24.37
2023-04-27T12:51:45.518Z,24.85
2023-04-27T12:54:15.137Z,24.53
2023-04-27T12:56:43.312Z,24.83
2023-04-27T12:59:11.280Z,24.28
2023-04-27T13:01:39.217Z,24.41
2023-04-27T13:04:09.166Z,24.47
2023-04-27T13:06:38.194Z,24.70
2023-04-27T13:09:06.766Z,24.03
2023-04-27T13:11:36.081Z,24.57
2023-04-27T13:14:04.917Z,24.53
2023-04-27T13:16:32.794Z,24.21
2023-04-27T13:19:00.681Z,24.83
2023-04-27T13:21:29.464Z,24.60
2023-04-27T13:24:00.015Z,24.84
2023-04-27T13:26:28.142Z,24.98
2023-04-27T13:28:57.998Z,24.65
2023-04-27T13:31:26.088Z,24.50
2023-04-27T13:33:54.719Z,24.40
2023-04-27T13:36:22.692Z,24.25
2023-04-27T13:38:50.899Z,23.95
2023-04-27T13:41:18.957Z,24.45
2023-04-27T13:43:46.839Z,24.21
2023-04-27T13:46:16.146Z,24.20
2023-04-27T13:48:44.181Z,24.14
2023-04-27T13:51:12.158Z,23.75
2023-04-27T13:53:40.119Z,24.37
2023-04-27T13:56:08.037Z,23.85
2023-04-27T13:58:36.531Z,24.18
2023-04-27T14:01:04.521Z,23.84
2023-04-27T14:03:34.272Z,23.71
2023-04-27T14:06:02.743Z,24.04
2023-04-27T14:08:30.556Z,23.96
2023-04-27T14:10:59.082Z,23.92
2023-04-27T14:13:27.034Z,23.63
2023-04-27T14:15:54.859Z,23.43
2023-04-27T14:18:29.778Z,23.55
2023-04-27T14:21:01.741Z,23.37
2023-04-27T14:23:30.465Z,24.21
2023-04-27T14:25:58.363Z,23.61
2023-04-27T14:28:26.411Z,23.42
2023-04-27T14:30:54.303Z,23.48
2023-04-27T14:33:22.110Z,23.02
2023-04-27T14:35:50.018Z,23.65
2023-04-27T14:38:19.192Z,23.34
2023-04-27T14:40:47.126Z,23.27
2023-04-27T14:43:14.953Z,23.04
2023-04-27T14:45:51.654Z,22.80
2023-04-27T14:48:22.014Z,22.57
2023-04-27T14:50:49.896Z,22.72
2023-04-27T14:53:19.223Z,22.47
2023-04-27T14:55:47.188Z,22.46
2023-04-27T14:58:15.403Z,22.40
2023-04-27T15:00:43.425Z,22.24
2023-04-27T15:03:11.544Z,22.66
2023-04-27T15:05:39.694Z,22.18
2023-04-27T15:08:07.459Z,21.99
2023-04-27T15:10:36.786Z,22.06
2023-04-27T15:13:04.706Z,21.93
2023-04-27T15:15:32.564Z,22.34
2023-04-27T15:18:00.601Z,22.18
2023-04-27T15:20:28.511Z,22.51
2023-04-27T15:22:56.474Z,21.76
2023-04-27T15:25:24.385Z,22.30
2023-04-27T15:27:53.889Z,21.97
2023-04-27T15:30:21.626Z,22.20
2023-04-27T15:32:49.551Z,22.55
2023-04-27T15:35:17.760Z,22.45
2023-04-27T15:37:45.634Z,22.24
2023-04-27T15:40:13.743Z,22.56
2023-04-27T15:42:41.594Z,22.01
2023-04-27T15:45:11.725Z,21.85
2023-04-27T15:47:39.731Z,21.63
2023-04-27T15:50:09.322Z,21.57
2023-04-27T15:52:37.208Z,21.45
2023-04-27T15:55:05.572Z,21.39
2023-04-27T15:57:35.886Z,21.51
2023-04-27T16:00:07.647Z,21.89
2023-04-27T16:02:41.237Z,21.88
2023-04-27T16:05:09.861Z,21.84
2023-04-27T16:07:39.567Z,21.95
2023-04-27T16:10:08.933Z,22.01
2023-04-27T16:12:36.867Z,21.72
2023-04-27T16:15:05.861Z,22.21
2023-04-27T16:17:37.000Z,22.35
2023-04-27T16:20:07.775Z,21.84
2023-04-27T16:22:36.007Z,22.11
2023-04-27T16:25:04.041Z,22.06
2023-04-27T16:27:32.029Z,22.60
2023-04-27T16:29:59.805Z,22.51
2023-04-27T16:32:27.663Z,22.50
2023-04-27T16:34:55.440Z,22.76
2023-04-27T16:37:24.598Z,22.78
2023-04-27T16:39:52.474Z,23.07
2023-04-27T16:42:20.786Z,22.89
2023-04-27T16:44:48.652Z,23.05
2023-04-27T16:47:16.420Z,23.02
2023-04-27T16:49:44.400Z,23.12
2023-04-27T16:52:12.600Z,23.22
2023-04-27T16:54:41.762Z,23.35
2023-04-27T16:57:09.615Z,23.33
2023-04-27T16:59:37.669Z,23.19
2023-04-27T17:02:16.999Z,23.55
2023-04-27T17:04:51.577Z,23.05
2023-04-27T17:07:19.564Z,23.47
2023-04-27T17:09:48.826Z,23.13
2023-04-27T17:12:17.225Z,23.51
2023-04-27T17:14:45.031Z,23.11
2023-04-27T17:17:12.811Z,23.54
2023-04-27T17:19:40.684Z,23.14
2023-04-27T17:22:11.277Z,23.06
2023-04-27T17:24:39.253Z,23.13
2023-04-27T17:27:08.384Z,23.06
2023-04-27T17:29:37.253Z,23.22
2023-04-27T17:32:05.213Z,23.65
2023-04-27T17:34:33.071Z,23.33
2023-04-27T17:37:01.001Z,23.21
2023-04-27T17:39:29.181Z,23.53
2023-04-27T17:41:57.283Z,23.35
2023-04-27T17:44:26.607Z,23.12
2023-04-27T17:46:54.558Z,23.26
2023-04-27T17:49:22.478Z,23.36
2023-04-27T17:51:50.579Z,23.80
2023-04-27T17:54:18.458Z,23.51
2023-04-27T17:56:46.534Z,23.63
2023-04-27T17:59:14.576Z,24.06
2023-04-27T18:01:43.866Z,23.75
2023-04-27T18:04:11.999Z,24.11
2023-04-27T18:06:39.994Z,23.74
2023-04-27T18:09:08.002Z,24.13
2023-04-27T18:11:36.273Z,23.78
2023-04-27T18:14:04.190Z,23.89
2023-04-27T18:16:31.996Z,24.08
2023-04-27T18:19:01.264Z,24.50
2023-04-27T18:21:30.049Z,24.43
2023-04-27T18:23:58.264Z,24.42
2023-04-27T18:26:26.333Z,24.29
2023-04-27T18:28:54.325Z,24.26
2023-04-27T18:31:24.170Z,24.55
2023-04-27T18:33:52.291Z,24.51
2023-04-27T18:36:21.598Z,24.82
2023-04-27T18:38:49.630Z,24.88
2023-04-27T18:41:18.016Z,24.45
2023-04-27T18:43:45.975Z,24.70
2023-04-27T18:46:14.034Z,24.52
2023-04-27T18:48:42.261Z,24.85
2023-04-27T18:51:10.178Z,24.64
2023-04-27T18:53:39.391Z,25.06
2023-04-27T18:56:08.905Z,24.74
2023-04-27T18:58:37.372Z,24.69
2023-04-27T19:01:05.232Z,25.05
2023-04-27T19:03:33.391Z,24.71
2023-04-27T19:06:01.304Z,24.69
2023-04-27T19:08:29.282Z,25.18
2023-04-27T19:10:58.619Z,25.17
2023-04-27T19:13:27.798Z,24.95
2023-04-27T19:15:55.859Z,25.29
2023-04-27T19:18:23.683Z,24.88
2023-04-27T19:20:51.618Z,25.30
2023-04-27T19:23:20.137Z,25.59
2023-04-27T19:25:48.303Z,25.72
2023-04-27T19:28:19.861Z,25.18
2023-04-27T19:30:48.603Z,25.49
2023-04-27T19:33:19.683Z,25.53
2023-04-27T19:35:48.465Z,25.59
2023-04-27T19:38:16.310Z,25.54
2023-04-27T19:40:44.212Z,25.65
2023-04-27T19:43:12.010Z,25.56
2023-04-27T19:45:41.926Z,25.80
2023-04-27T19:48:09.907Z,25.69
2023-04-27T19:50:42.311Z,25.43
2023-04-27T19:53:10.771Z,25.64
2023-04-27T19:55:40.169Z,25.89
2023-04-27T19:58:08.007Z,25.76
2023-04-27T20:00:35.793Z,25.85
2023-04-27T20:03:06.383Z,25.74
2023-04-27T20:05:35.787Z,25.90
2023-04-27T20:08:03.687Z,26.19
2023-04-27T20:10:31.656Z,26.32
2023-04-27T20:12:59.539Z,26.21
2023-04-27T20:15:27.659Z,26.28
2023-04-27T20:17:55.550Z,26.16
2023-04-27T20:20:25.060Z,26.22
2023-04-27T20:22:52.878Z,26.36
2023-04-27T20:25:20.990Z,26.36
2023-04-27T20:27:48.798Z,26.33
2023-04-27T20:30:16.635Z,26.08
2023-04-27T20:32:46.488Z,26.53
2023-04-27T20:35:14.855Z,26.28
2023-04-27T20:37:44.488Z,26.23
2023-04-27T20:40:17.394Z,26.61
2023-04-27T20:42:45.636Z,26.23
2023-04-27T20:45:13.753Z,26.17
2023-04-27T20:47:42.092Z,26.26
2023-04-27T20:50:10.091Z,26.68
2023-04-27T20:52:38.012Z,26.67
2023-04-27T20:55:07.794Z,26.69
2023-04-27T20:57:35.794Z,26.26
2023-04-27T21:00:04.864Z,26.44
2023-04-27T21:02:32.839Z,26.69
2023-04-27T21:05:00.765Z,26.88
2023-04-27T21:07:28.827Z,26.80
2023-04-27T21:09:56.813Z,26.58
2023-04-27T21:12:26.768Z,26.87
2023-04-27T21:14:54.669Z,26.44
2023-04-27T21:17:22.470Z,26.46
2023-04-27T21:19:50.374Z,26.47
2023-04-27T21:22:18.317Z,26.70
2023-04-27T21:24:47.467Z,26.79
2023-04-27T21:27:15.457Z,26.86
2023-04-27T21:29:44.804Z,26.64
2023-04-27T21:32:12.749Z,26.86
2023-04-27T21:34:40.706Z,27.17
2023-04-27T21:37:08.533Z,26.85
2023-04-27T21:39:36.389Z,26.92
2023-04-27T21:42:04.481Z,26.59
2023-04-27T21:44:32.295Z,27.02
2023-04-27T21:47:02.001Z,26.77
2023-04-27T21:49:29.796Z,27.26
2023-04-27T21:51:57.649Z,26.66
2023-04-27T21:54:25.715Z,26.88
2023-04-27T21:56:53.536Z,26.98
2023-04-27T21:59:21.624Z,27.33
2023-04-27T22:01:49.699Z,27.19
2023-04-27T22:04:20.230Z,26.73
2023-04-27T22:06:48.820Z,27.17
2023-04-27T22:09:16.674Z,27.42
2023-04-27T22:11:44.632Z,27.25
2023-04-27T22:14:12.471Z,26.98
2023-04-27T22:16:40.540Z,27.67
2023-04-27T22:19:09.187Z,27.49
2023-04-27T22:21:38.379Z,27.13
2023-04-27T22:24:06.531Z,26.91
2023-04-27T22:26:34.385Z,26.86
2023-04-27T22:29:02.171Z,27.42
2023-04-27T22:31:32.042Z,27.46
2023-04-27T22:34:00.114Z,27.60
2023-04-27T22:36:28.844Z,27.44
2023-04-27T22:38:58.323Z,27.25
2023-04-27T22:41:26.247Z,27.83
2023-04-27T22:43:54.024Z,27.97
2023-04-27T22:46:23.353Z,27.50
2023-04-27T22:48:52.574Z,27.77
2023-04-27T22:51:21.722Z,27.83
2023-04-27T22:53:49.855Z,27.73
2023-04-27T22:56:19.024Z,27.75
2023-04-27T22:58:46.862Z,27.99
2023-04-27T23:01:14.728Z,27.63
2023-04-27T23:03:42.637Z,28.23
2023-04-27T23:06:14.217Z,28.44
2023-04-27T23:08:44.100Z,28.45
2023-04-27T23:11:15.311Z,28.45
2023-04-27T23:13:44.644Z,28.32
2023-04-27T23:16:14.689Z,28.47
2023-04-27T23:18:42.864Z,28.75
2023-04-27T23:21:11.613Z,28.67
2023-04-27T23:23:39.479Z,28.58
2023-04-27T23:26:13.809Z,29.63
2023-04-27T23:28:41.946Z,29.25
2023-04-27T23:31:11.358Z,29.41
2023-04-27T23:33:39.453Z,29.70
2023-04-27T23:36:07.780Z,29.59
2023-04-27T23:38:35.697Z,30.05
2023-04-27T23:41:03.560Z,29.74
2023-04-27T23:43:31.626Z,30.45
2023-04-27T23:45:59.493Z,30.31
2023-04-27T23:48:28.752Z,30.30
2023-04-27T23:51:00.892Z,30.75
2023-04-27T23:53:29.328Z,30.85
2023-04-27T23:55:57.705Z,30.78
2023-04-27T23:58:26.142Z,30.64
